Sonic Adventure (DX): Overall Rankings

Records: Times | Rings | Scores | Races | Bosses | Freestyle
Leaders: Times | Rings | Scores | Races | Bosses | Freestyle | Overall
Rank Player Percent Points Date
1 Sonicspeedruner 98.2% 292 04-28-17
2 Gamepro011 98.2% 307 04-28-17
3 DarkPolarNight 96.4% 609 04-28-17
4 Jawzun 93.4% 1114 04-28-17
5 Dashjump 92.0% 1358 04-28-17
6 DarkspinesSonic 90.2% 1666 04-28-17
7 Avento128bits 89.9% 1714 04-28-17
8 ike6252 89.8% 1733 04-28-17
9 F-Man 87.9% 2056 04-28-17
10 Coolfansonic 87.3% 2162 04-28-17
11 HyperSonic7701 84.7% 2613 04-28-17
12 TheRealShadnic 83.9% 2748 04-28-17
13 yoshifan 83.0% 2900 04-28-17
14 frankoredstrato 82.6% 2961 04-28-17
15 francisco 81.7% 3121 04-28-17
16 Marth 81.5% 3166 04-28-17
17 InferSaime 80.3% 3367 04-28-17
18 PfoSonic 79.8% 3448 04-28-17
19 Paragod 79.3% 3527 04-28-17
20 THC98 78.6% 3662 04-28-17
21 Stefan 76.2% 4073 04-28-17
22 RPGnutter 74.0% 4437 04-28-17
23 bertin 73.9% 4459 04-28-17
24 sonicam 71.8% 4817 04-28-17
25 xXMegaManXx 70.4% 5056 04-28-17
26 drminus 70.4% 5057 04-28-17
27 Combo 66.0% 5816 04-28-17
28 SkyLights 64.8% 6021 04-28-17
29 chaos shadow 63.8% 6194 04-28-17
30 Diamond 62.6% 6384 04-28-17
31 Auriman1 60.8% 6703 04-28-17
32 GerbilSoft 60.7% 6711 04-28-17
33 OmegaDJ 60.7% 6718 04-28-17
34 magnum12 59.8% 6864 04-28-17
35 chainchumper 58.0% 7179 04-28-17
36 Thorn 57.7% 7229 04-28-17
37 P1 Pause 57.5% 7263 04-28-17
38 mike89 56.4% 7459 04-28-17
39 Groudon199 54.4% 7791 04-28-17
40 Dave Cramer 54.4% 7800 04-28-17
41 Shadow Jacky 53.4% 7966 04-28-17
42 Parax 53.3% 7990 04-28-17
43 Psymar 48.2% 8854 04-28-17
44 Arch 47.5% 8971 04-28-17
45 Chao_Fan 46.6% 9130 04-28-17
46 Quartz 45.5% 9314 04-28-17
47 mauserman 45.5% 9327 04-28-17
48 teamblackarms 44.7% 9458 04-28-17
49 James_Bertolli 43.6% 9649 04-28-17
50 Psyknux 43.5% 9659 04-28-17
51 NintenDan 43.2% 9712 04-28-17
52 Webber3000 42.8% 9787 04-28-17
53 Turbos 42.6% 9815 04-28-17
54 Cream147 42.2% 9889 04-28-17
55 Ring Rush 42.1% 9902 04-28-17
56 videogamemaster777 42.1% 9909 04-28-17
57 Siavash Tazari 41.9% 9937 04-28-17
58 Fr3nZy 41.6% 9986 04-28-17
59 buddychaos0415 41.2% 10049 04-28-17
60 SadisticMystic 40.5% 10166 04-28-17
61 eggFL 40.0% 10255 04-28-17
62 SB737 38.4% 10539 04-28-17
63 supersonic465 37.7% 10657 04-28-17
64 supersonicfan 37.3% 10723 04-28-17
65 FuzZerd 36.0% 10945 04-28-17
66 Aitamen 35.6% 11009 04-28-17
67 elecmouse101 35.3% 11072 04-28-17
68 danieldude 35.1% 11103 04-28-17
69 metanightmare22 34.0% 11282 04-28-17
70 Cyan Ryan 33.9% 11309 04-28-17
71 dabestgamer 33.6% 11349 04-28-17
72 Austinf 33.6% 11352 04-28-17
73 MiStEr_ShAoLiN 33.5% 11374 04-28-17
74 Andrea Ritsu 32.6% 11531 04-28-17
75 BigAL49 32.2% 11592 04-28-17
76 itsPersonnal 31.9% 11647 04-28-17
77 SilvertheAlmighty 31.3% 11754 04-28-17
78 Cybrax 31.3% 11755 04-28-17
79 Nimrod 30.6% 11872 04-28-17
80 VMU Player Banned 29.2% 12113 04-28-17
81 Staf 29.1% 12119 04-28-17
82 ethmar 28.8% 12185 04-28-17
83 The T 28.7% 12196 04-28-17
84 Omega Rafael Santos 28.6% 12204 04-28-17
85 EngiNerd 28.5% 12231 04-28-17
86 lordmetalsonic 27.9% 12327 04-28-17
87 welldooder64 27.3% 12434 04-28-17
88 Hipertails12 27.0% 12477 04-28-17
89 The Great Lord Mick 27.0% 12479 04-28-17
90 GreatStar 27.0% 12490 04-28-17
90 Sondow 27.0% 12490 04-28-17
92 LinksDarkArrows 26.7% 12529 04-28-17
93 Mastakirby 26.6% 12553 04-28-17
94 Skylace 25.6% 12726 04-28-17
95 a_moustache 24.3% 12943 04-28-17
96 Rolken 24.3% 12948 04-28-17
97 Kogen Player Banned 22.5% 13247 04-28-17
98 Xia 22.5% 13259 04-28-17
99 Spinballwizard 22.5% 13261 04-28-17
100 Twilisailor 22.1% 13330 04-28-17
101 f0rever_zer0 22.0% 13342 04-28-17
102 Cutiefox 21.8% 13375 04-28-17
103 Don 21.5% 13433 04-28-17
104 Game_Complete 21.4% 13449 04-28-17
105 Miles9999 21.3% 13465 04-28-17
106 andres430 21.2% 13469 04-28-17
107 Cruizer 20.8% 13539 04-28-17
107 iSonicKid2K 20.8% 13539 04-28-17
109 SADXTryHard 20.4% 13622 04-28-17
110 JamminX42 20.2% 13644 04-28-17
111 GarnetPrincess 20.1% 13663 04-28-17
112 AxlThunder 19.0% 13850 04-28-17
113 knuckles_sonic8 18.7% 13900 04-28-17
114 The Knuckles Chao 18.5% 13939 04-28-17
115 KinkyCadence 18.3% 13967 04-28-17
116 Team_Yoshi 18.0% 14024 04-28-17
117 Termon 17.9% 14038 04-28-17
118 LittleBigness 17.9% 14049 04-28-17
119 FoxBoy 17.8% 14059 04-28-17
120 SonicWinDX 17.7% 14082 04-28-17
121 Drakodan 16.9% 14219 04-28-17
122 Sonic Singularity 16.2% 14329 04-28-17
123 Pokemonmaster888 15.8% 14399 04-28-17
124 MPit08 14.9% 14564 04-28-17
125 SilverSonic 14.7% 14589 04-28-17
126 koinu93 14.4% 14649 04-28-17
127 WeegeeZV 14.3% 14654 04-28-17
128 Mo Player Banned 14.1% 14684 04-28-17
129 HyperSonic64 14.0% 14710 04-28-17
130 booo95 13.9% 14732 04-28-17
131 Cod4Scopes 13.7% 14765 04-28-17
132 Chawkk 13.6% 14786 04-28-17
133 paulie9990 13.5% 14791 04-28-17
134 Jerzia 13.5% 14797 04-28-17
135 SuperSonic101 13.2% 14839 04-28-17
136 Maxinfamily 13.1% 14859 04-28-17
137 Hunters13 13.0% 14876 04-28-17
138 LilZero 12.9% 14903 04-28-17
139 Kanimayo_Jp 12.7% 14937 04-28-17
140 BrokenArthritis 12.5% 14962 04-28-17
141 PsyBorg 12.4% 14975 04-28-17
142 Flying Fox 12.4% 14989 04-28-17
143 sonicspeed 12.2% 15023 04-28-17
144 douglas 12.1% 15036 04-28-17
145 Therio 12.0% 15046 04-28-17
146 Matt_TY 11.7% 15101 04-28-17
147 thewaytodawnnn 11.5% 15142 04-28-17
148 Cooljay 11.1% 15200 04-28-17
149 N 11.0% 15231 04-28-17
150 SeaWolf 10.8% 15258 04-28-17
151 SuperBlitzCraig 10.7% 15268 04-28-17
152 joecoolgames 10.7% 15274 04-28-17
153 videogamer1014 10.7% 15282 04-28-17
154 AC-Tygo 10.5% 15314 04-28-17
155 welshmoose05 10.4% 15331 04-28-17
156 OddCook 10.2% 15357 04-28-17
157 crazy1993 10.1% 15380 04-28-17
158 TFEC Headshot 9.9% 15403 04-28-17
159 Mcshuggets 9.7% 15441 04-28-17
160 niscool 9.6% 15455 04-28-17
161 imazor017 9.3% 15510 04-28-17
162 nuckrieg 9.3% 15512 04-28-17
163 Shadowthegreat 9.3% 15515 04-28-17
163 SonicAD 9.3% 15515 04-28-17
165 superjupi 9.3% 15520 04-28-17
166 Mariobutch 9.2% 15529 04-28-17
167 SirTobbii 9.2% 15536 04-28-17
168 sonamyfan666 9.0% 15569 04-28-17
169 SonicKnuckles 8.8% 15595 04-28-17
170 iarebored 8.8% 15605 04-28-17
171 Powerjohn25 8.7% 15617 04-28-17
172 SaviourDC 8.6% 15629 04-28-17
173 adf 8.4% 15664 04-28-17
174 Werey 8.3% 15685 04-28-17
175 Megaman EXE565 8.2% 15698 04-28-17
176 timpkmn89 7.7% 15783 04-28-17
177 Platformer 7.7% 15792 04-28-17
178 ArcticDragon 7.6% 15800 04-28-17
179 wheatrich 7.6% 15808 04-28-17
180 Swift Hobo 7.4% 15840 04-28-17
181 FocusSight64 7.4% 15843 04-28-17
182 KitsuneYamaro 7.2% 15866 04-28-17
183 Rickyman48 7.2% 15880 04-28-17
184 Triseena 7.1% 15895 04-28-17
185 dShadow 6.8% 15950 04-28-17
186 Destroyer121121 6.7% 15960 04-28-17
187 slade23 6.6% 15980 04-28-17
188 CyberShadow 6.6% 15984 04-28-17
189 Starlight Sable 6.5% 15991 04-28-17
190 IsisDazs 6.4% 16014 04-28-17
191 BlankTH 6.2% 16036 04-28-17
192 Monkeh 6.2% 16038 04-28-17
193 SonicU260 6.1% 16066 04-28-17
194 Redd 6.0% 16084 04-28-17
194 Richied 6.0% 16084 04-28-17
196 Badlex727 5.9% 16089 04-28-17
197 DaDude 5.8% 16117 04-28-17
198 Zip 5.7% 16130 04-28-17
199 Swinkly 5.7% 16131 04-28-17
200 Vicklaw 5.6% 16141 04-28-17
201 sonicd5 5.6% 16146 04-28-17
202 ALundstrom10 5.3% 16190 04-28-17
203 tal39h 5.2% 16208 04-28-17
204 VeritasDL 5.2% 16224 04-28-17
205 Kirbymon30 5.1% 16233 04-28-17
206 soniccoloursunleashed 5.1% 16239 04-28-17
207 Bass 5.0% 16243 04-28-17
208 Drflash55 5.0% 16249 04-28-17
209 superiorsonic 4.8% 16281 04-28-17
210 neaolas 4.8% 16283 04-28-17
211 zapp 4.7% 16293 04-28-17
212 Yish 4.7% 16302 04-28-17
213 UninspiredUsername 4.6% 16313 04-28-17
214 Sonicsuperstar1 4.6% 16322 04-28-17
215 gamefreak1292 4.5% 16333 04-28-17
216 Chaos_Overlord 4.2% 16379 04-28-17
217 TakaRikka 4.1% 16404 04-28-17
218 Valfore 4.0% 16413 04-28-17
219 ShinigamiMachine 3.8% 16450 04-28-17
220 Regano1000 3.8% 16452 04-28-17
221 MK 3.7% 16468 04-28-17
222 Ace747 3.6% 16483 04-28-17
223 Illidan 3.2% 16561 04-28-17
224 HHNNBBHHN 3.2% 16563 04-28-17
225 Sithwarrior26 3.1% 16570 04-28-17
226 Venick409 3.1% 16571 04-28-17
227 Brian_pso 3.1% 16572 04-28-17
228 nman36 3.1% 16573 04-28-17
229 SkyBon 3.0% 16586 04-28-17
230 Egor305 3.0% 16587 04-28-17
231 dekki1234 3.0% 16593 04-28-17
232 TheChaosEmeraIds 3.0% 16598 04-28-17
233 ingx24 3.0% 16600 04-28-17
234 Nickson98 2.9% 16605 04-28-17
235 Colomb_30 2.9% 16614 04-28-17
236 Fozer 2.9% 16615 04-28-17
237 FSSRandomvids 2.8% 16629 04-28-17
238 Aiko 2.8% 16634 04-28-17
239 sonic29887 2.7% 16646 04-28-17
240 TheUltraBlur 2.6% 16652 04-28-17
241 1stKirbyever 2.6% 16655 04-28-17
242 TimTH 2.5% 16672 04-28-17
243 Th4tN1nj4Turtl3 2.4% 16692 04-28-17
244 ieatatsonic 2.4% 16703 04-28-17
245 Cort_pso 2.3% 16704 04-28-17
246 Mariosonic15 2.3% 16711 04-28-17
247 Doom-9 2.3% 16717 04-28-17
248 Artie 2.3% 16720 04-28-17
249 HermitHelmet 2.2% 16737 04-28-17
249 MStitomix 2.2% 16737 04-28-17
251 Got4n 2.1% 16754 04-28-17
252 SuperSonic71087 2.0% 16757 04-28-17
253 Jose_15 2.0% 16766 04-28-17
254 Questionguy555 1.9% 16776 04-28-17
255 djmat 1.9% 16787 04-28-17
256 SuperSonicfan9595 1.9% 16788 04-28-17
257 Heroes_Hater 1.8% 16804 04-28-17
258 sonicandamy Player Banned 1.7% 16810 04-28-17
259 LancexExWx 1.7% 16817 04-28-17
259 Paixii 1.7% 16817 04-28-17
261 son1cgu1tar 1.7% 16821 04-28-17
262 Mankster101 1.6% 16831 04-28-17
263 BallzeH 1.6% 16833 04-28-17
264 BecauseWarAnvil 1.6% 16835 04-28-17
265 Jamixesa 1.5% 16843 04-28-17
266 SpiritDragon1995 1.5% 16853 04-28-17
267 Crydio 1.5% 16856 04-28-17
268 Shanekilz 1.4% 16858 04-28-17
269 MarewBFN 1.4% 16871 04-28-17
270 stanski 1.3% 16876 04-28-17
271 Sonique Hedgehog 1.3% 16878 04-28-17
272 p0ker 1.3% 16889 04-28-17
273 Blue Infamy 1.2% 16892 04-28-17
274 ErrortheCucco 1.2% 16903 04-28-17
275 Rikum22 1.2% 16906 04-28-17
276 Arthas 1.2% 16908 04-28-17
277 sonic1001 1.1% 16914 04-28-17
278 WingedInsignia 1.1% 16919 04-28-17
279 AJSIV 1.1% 16920 04-28-17
280 syco1098 1.1% 16921 04-28-17
281 Sonic the Hedgehod16 1.1% 16924 04-28-17
282 ASINISTERTACO 1.0% 16932 04-28-17
283 Calfd 1.0% 16935 04-28-17
283 sonicfan9 1.0% 16935 04-28-17
285 BlackArmsShadow 0.9% 16945 04-28-17
286 themachoman202 0.9% 16946 04-28-17
287 darkstarblaze 0.9% 16947 04-28-17
288 shadowblast63 Player Banned 0.9% 16952 04-28-17
289 Greham Adelphis 0.9% 16955 04-28-17
290 Fivavoa 0.9% 16956 04-28-17
290 MastaToken 0.9% 16956 04-28-17
292 Mr. Jones 0.9% 16957 04-28-17
293 arcfx1985 0.8% 16960 04-28-17
293 Ben1502 0.8% 16960 04-28-17
295 ptorflaxendrosis 0.8% 16962 04-28-17
296 TommyeAsY 0.8% 16964 04-28-17
297 FlandreScarlet9999vr 0.8% 16968 04-28-17
297 Gvozdevik 0.8% 16968 04-28-17
299 Knuckles 0.8% 16969 04-28-17
300 Zeldocto 0.8% 16970 04-28-17
301 BeeAwwb 0.8% 16973 04-28-17
301 KaM Mark MaK 0.8% 16973 04-28-17
303 ShadouZaHejjihoggu 0.7% 16981 04-28-17
304 Sarger001 0.7% 16983 04-28-17
305 dragondragon18 0.7% 16988 04-28-17
305 Sonic62 0.7% 16988 04-28-17
307 Sonic The Star 0.7% 16989 04-28-17
308 darkersupershadic 0.7% 16990 04-28-17
309 BioShadow 0.7% 16994 04-28-17
310 Shadygamerfreak 0.6% 16995 04-28-17
310 SonicK100 0.6% 16995 04-28-17
312 Grady219 0.6% 16996 04-28-17
313 Sogeking 0.6% 16998 04-28-17
314 Jawaah 0.6% 17003 04-28-17
315 Antek 0.6% 17005 04-28-17
316 Klaus 0.6% 17007 04-28-17
317 SilverK 0.6% 17008 04-28-17
318 SpinDashMaster 0.5% 17016 04-28-17
319 Videogamer123 0.5% 17017 04-28-17
320 isaihtb11 0.4% 17033 04-28-17
320 oTaiIilLsS 0.4% 17033 04-28-17
322 zaktu40 0.4% 17035 04-28-17
323 OhNoes! 0.4% 17036 04-28-17
324 gaara1234 0.4% 17038 04-28-17
325 gamed00d 0.4% 17039 04-28-17
326 S-MS32X-S 0.4% 17040 04-28-17
327 Mad Andy 0.4% 17041 04-28-17
328 Mister_Slick 0.3% 17051 04-28-17
329 Rush Hero 0.3% 17054 04-28-17
329 Sonic06Fan 0.3% 17054 04-28-17
331 SonicMega167 0.3% 17059 04-28-17
332 Iwannabelink 0.2% 17063 04-28-17
333 sonknuck23 0.2% 17065 04-28-17
334 DanielTheFalcon 0.2% 17076 04-28-17
335 gamer1245 0.2% 17077 04-28-17
336 Burningskull123 0.2% 17078 04-28-17
337 Sonicontherun 0.1% 17091 04-28-17
338 antiwwe 0.1% 17096 04-28-17
338 Lil_Dude 0.1% 17096 04-28-17
340 Tyrouble 0.0% 17098 04-28-17
341 Genuine Hedgehog 0.0% 17099 04-28-17
341 SonataSpinDash 0.0% 17099 04-28-17
343 Cbwade15 0.0% 17104 04-28-17
344 ReuelBrony 0.0% 17111 04-28-17
345 MegabombBlade 0.0% 17114 04-28-17
345 neji_hyuuga 0.0% 17114 04-28-17
345 Over 0.0% 17114 04-28-17
345 sdj6707 Player Banned 0.0% 17114 04-28-17
345 Tran Sonic Fan Player Banned 0.0% 17114 04-28-17

This page is using the New Data Table System. [FUTURE]

Game ID: 3 | Category ID: 10
Hits: 3,965 | Hits This Month: 28 | DB Calls: 23 | Mem Usage: 5.48 MB | Time: 0.13s | Printable

The Sonic Center v3.9
Copyright 2003-2011 by The Sonic Center Team.